sensor_id;sensor_type;location;lat;lon;timestamp;P1;durP1;ratioP1;P2;durP2;ratioP2
66601;SDS011;53459;51.828;7.872;2022-07-29T11:28:35;7.47;;;2.20;;
66601;SDS011;53459;51.828;7.872;2022-07-29T11:31:07;5.63;;;2.00;;
66601;SDS011;53459;51.828;7.872;2022-07-29T11:33:35;9.45;;;2.70;;
66601;SDS011;53459;51.828;7.872;2022-07-29T11:38:34;6.03;;;1.92;;
66601;SDS011;53459;51.828;7.872;2022-07-29T11:43:52;7.40;;;1.70;;
66601;SDS011;53459;51.828;7.872;2022-07-29T11:49:23;8.50;;;1.83;;
66601;SDS011;53459;51.828;7.872;2022-07-29T11:51:51;6.57;;;1.98;;
66601;SDS011;53459;51.828;7.872;2022-07-29T11:54:22;6.88;;;1.70;;
66601;SDS011;53459;51.828;7.872;2022-07-29T11:56:51;8.05;;;1.77;;
66601;SDS011;53459;51.828;7.872;2022-07-29T11:59:19;7.68;;;1.83;;
66601;SDS011;53459;51.828;7.872;2022-07-29T12:01:51;8.30;;;1.90;;
66601;SDS011;53459;51.828;7.872;2022-07-29T12:04:21;5.80;;;1.90;;
66601;SDS011;53459;51.828;7.872;2022-07-29T12:06:51;6.68;;;1.88;;
66601;SDS011;53459;51.828;7.872;2022-07-29T12:09:22;8.43;;;2.10;;
66601;SDS011;53459;51.828;7.872;2022-07-29T12:13:38;7.38;;;2.38;;
66601;SDS011;53459;51.828;7.872;2022-07-29T12:16:04;6.47;;;1.90;;
66601;SDS011;53459;51.828;7.872;2022-07-29T12:18:29;6.13;;;1.83;;
66601;SDS011;53459;51.828;7.872;2022-07-29T12:20:58;8.52;;;2.10;;
66601;SDS011;53459;51.828;7.872;2022-07-29T12:24:03;7.78;;;2.00;;
66601;SDS011;53459;51.828;7.872;2022-07-29T12:26:29;5.72;;;2.00;;
66601;SDS011;53459;51.828;7.872;2022-07-29T12:28:54;6.87;;;2.17;;
66601;SDS011;53459;51.828;7.872;2022-07-29T12:31:20;8.65;;;2.20;;
66601;SDS011;53459;51.828;7.872;2022-07-29T12:33:51;7.65;;;2.22;;
66601;SDS011;53459;51.828;7.872;2022-07-29T12:36:18;7.07;;;1.95;;
66601;SDS011;53459;51.828;7.872;2022-07-29T12:38:44;7.35;;;1.92;;
66601;SDS011;53459;51.828;7.872;2022-07-29T12:41:11;7.45;;;2.10;;
66601;SDS011;53459;51.828;7.872;2022-07-29T12:45:55;5.72;;;2.08;;
66601;SDS011;53459;51.828;7.872;2022-07-29T12:48:41;8.40;;;1.90;;
66601;SDS011;53459;51.828;7.872;2022-07-29T12:51:08;7.57;;;2.20;;
66601;SDS011;53459;51.828;7.872;2022-07-29T12:54:54;7.18;;;2.13;;
66601;SDS011;53459;51.828;7.872;2022-07-29T12:57:20;7.82;;;2.10;;
66601;SDS011;53459;51.828;7.872;2022-07-29T12:59:58;7.45;;;2.20;;
66601;SDS011;53459;51.828;7.872;2022-07-29T13:02:30;7.75;;;2.33;;
66601;SDS011;53459;51.828;7.872;2022-07-29T13:04:57;8.23;;;2.30;;
66601;SDS011;53459;51.828;7.872;2022-07-29T13:07:24;8.77;;;2.28;;
66601;SDS011;53459;51.828;7.872;2022-07-29T13:09:52;6.82;;;2.20;;
66601;SDS011;53459;51.828;7.872;2022-07-29T13:12:18;9.35;;;2.50;;
66601;SDS011;53459;51.828;7.872;2022-07-29T13:14:45;9.10;;;2.63;;
66601;SDS011;53459;51.828;7.872;2022-07-29T13:19:42;6.57;;;2.13;;
66601;SDS011;53459;51.828;7.872;2022-07-29T13:22:10;7.13;;;2.33;;
66601;SDS011;53459;51.828;7.872;2022-07-29T13:24:47;8.00;;;2.28;;
66601;SDS011;53459;51.828;7.872;2022-07-29T13:27:24;7.85;;;2.17;;
66601;SDS011;53459;51.828;7.872;2022-07-29T13:29:52;7.88;;;2.30;;
66601;SDS011;53459;51.828;7.872;2022-07-29T13:33:54;8.68;;;2.38;;
66601;SDS011;53459;51.828;7.872;2022-07-29T13:37:57;7.85;;;2.38;;
66601;SDS011;53459;51.828;7.872;2022-07-29T13:40:22;7.07;;;2.30;;
66601;SDS011;53459;51.828;7.872;2022-07-29T13:42:48;11.73;;;3.10;;
66601;SDS011;53459;51.828;7.872;2022-07-29T13:45:14;11.52;;;3.10;;
66601;SDS011;53459;51.828;7.872;2022-07-29T13:47:39;11.23;;;3.50;;
66601;SDS011;53459;51.828;7.872;2022-07-29T13:50:06;12.43;;;3.75;;
66601;SDS011;53459;51.828;7.872;2022-07-29T13:53:18;8.98;;;3.40;;
66601;SDS011;53459;51.828;7.872;2022-07-29T13:55:44;12.23;;;3.70;;
66601;SDS011;53459;51.828;7.872;2022-07-29T13:58:09;11.03;;;3.93;;
66601;SDS011;53459;51.828;7.872;2022-07-29T14:00:35;10.80;;;3.97;;
66601;SDS011;53459;51.828;7.872;2022-07-29T14:03:00;10.23;;;4.10;;
66601;SDS011;53459;51.828;7.872;2022-07-29T14:05:29;12.80;;;4.27;;
66601;SDS011;53459;51.828;7.872;2022-07-29T14:07:54;14.75;;;5.03;;
66601;SDS011;53459;51.828;7.872;2022-07-29T14:10:20;12.27;;;4.73;;
66601;SDS011;53459;51.828;7.872;2022-07-29T14:12:45;11.13;;;4.87;;
66601;SDS011;53459;51.828;7.872;2022-07-29T14:15:11;13.52;;;5.68;;
66601;SDS011;53459;51.828;7.872;2022-07-29T14:17:37;18.53;;;6.90;;
66601;SDS011;53459;51.828;7.872;2022-07-29T14:20:03;17.60;;;8.23;;
66601;SDS011;53459;51.828;7.872;2022-07-29T14:23:48;14.98;;;8.73;;
66601;SDS011;53459;51.828;7.872;2022-07-29T14:26:13;13.65;;;8.02;;
66601;SDS011;53459;51.828;7.872;2022-07-29T14:28:39;16.70;;;7.47;;
66601;SDS011;53459;51.828;7.872;2022-07-29T14:31:05;13.97;;;7.07;;
66601;SDS011;53459;51.828;7.872;2022-07-29T14:33:30;13.27;;;6.00;;
66601;SDS011;53459;51.828;7.872;2022-07-29T14:37:53;15.30;;;5.90;;
66601;SDS011;53459;51.828;7.872;2022-07-29T14:43:00;15.15;;;6.35;;
66601;SDS011;53459;51.828;7.872;2022-07-29T14:45:26;11.27;;;6.00;;
66601;SDS011;53459;51.828;7.872;2022-07-29T14:47:53;14.55;;;5.60;;
66601;SDS011;53459;51.828;7.872;2022-07-29T14:50:18;11.93;;;5.40;;
66601;SDS011;53459;51.828;7.872;2022-07-29T14:52:44;10.70;;;4.80;;
66601;SDS011;53459;51.828;7.872;2022-07-29T14:55:10;12.13;;;4.87;;
66601;SDS011;53459;51.828;7.872;2022-07-29T14:57:35;12.18;;;5.38;;
66601;SDS011;53459;51.828;7.872;2022-07-29T15:00:02;11.50;;;4.90;;
66601;SDS011;53459;51.828;7.872;2022-07-29T15:02:34;11.57;;;4.88;;
66601;SDS011;53459;51.828;7.872;2022-07-29T15:05:00;10.23;;;4.03;;
66601;SDS011;53459;51.828;7.872;2022-07-29T15:08:26;10.85;;;3.65;;
66601;SDS011;53459;51.828;7.872;2022-07-29T15:10:54;8.85;;;4.25;;
66601;SDS011;53459;51.828;7.872;2022-07-29T15:13:22;8.27;;;3.90;;
66601;SDS011;53459;51.828;7.872;2022-07-29T15:15:48;9.18;;;3.60;;
66601;SDS011;53459;51.828;7.872;2022-07-29T15:18:14;10.25;;;3.97;;
66601;SDS011;53459;51.828;7.872;2022-07-29T15:20:40;10.83;;;3.87;;
66601;SDS011;53459;51.828;7.872;2022-07-29T15:23:05;10.23;;;3.90;;
66601;SDS011;53459;51.828;7.872;2022-07-29T15:25:34;10.18;;;3.50;;
66601;SDS011;53459;51.828;7.872;2022-07-29T15:30:14;9.27;;;3.55;;
66601;SDS011;53459;51.828;7.872;2022-07-29T15:32:43;10.02;;;3.40;;
66601;SDS011;53459;51.828;7.872;2022-07-29T15:35:09;10.20;;;3.75;;
66601;SDS011;53459;51.828;7.872;2022-07-29T15:37:38;9.82;;;3.50;;
66601;SDS011;53459;51.828;7.872;2022-07-29T15:40:05;9.02;;;3.33;;
66601;SDS011;53459;51.828;7.872;2022-07-29T15:42:31;9.70;;;3.50;;
66601;SDS011;53459;51.828;7.872;2022-07-29T15:44:57;8.63;;;2.88;;
66601;SDS011;53459;51.828;7.872;2022-07-29T15:47:27;9.18;;;3.25;;
66601;SDS011;53459;51.828;7.872;2022-07-29T15:49:54;8.00;;;3.30;;
66601;SDS011;53459;51.828;7.872;2022-07-29T15:52:19;9.40;;;3.20;;
66601;SDS011;53459;51.828;7.872;2022-07-29T15:54:45;8.07;;;3.10;;
66601;SDS011;53459;51.828;7.872;2022-07-29T15:57:11;6.47;;;2.80;;
66601;SDS011;53459;51.828;7.872;2022-07-29T15:59:37;8.45;;;2.83;;
66601;SDS011;53459;51.828;7.872;2022-07-29T16:02:03;10.23;;;3.40;;
66601;SDS011;53459;51.828;7.872;2022-07-29T16:06:47;8.02;;;3.00;;
66601;SDS011;53459;51.828;7.872;2022-07-29T16:09:13;8.27;;;3.35;;
66601;SDS011;53459;51.828;7.872;2022-07-29T16:11:40;10.20;;;3.20;;
66601;SDS011;53459;51.828;7.872;2022-07-29T16:14:06;9.75;;;2.90;;
66601;SDS011;53459;51.828;7.872;2022-07-29T16:16:32;11.75;;;3.20;;
66601;SDS011;53459;51.828;7.872;2022-07-29T16:18:58;8.15;;;2.90;;
66601;SDS011;53459;51.828;7.872;2022-07-29T16:21:23;9.43;;;3.10;;
66601;SDS011;53459;51.828;7.872;2022-07-29T16:23:49;8.40;;;3.10;;
66601;SDS011;53459;51.828;7.872;2022-07-29T16:26:15;7.00;;;3.20;;
66601;SDS011;53459;51.828;7.872;2022-07-29T16:28:41;7.82;;;2.72;;
66601;SDS011;53459;51.828;7.872;2022-07-29T16:31:07;7.38;;;3.05;;
66601;SDS011;53459;51.828;7.872;2022-07-29T16:33:33;10.38;;;2.95;;
66601;SDS011;53459;51.828;7.872;2022-07-29T16:35:59;6.57;;;2.77;;
66601;SDS011;53459;51.828;7.872;2022-07-29T16:38:24;9.80;;;3.10;;
66601;SDS011;53459;51.828;7.872;2022-07-29T16:40:50;7.43;;;2.90;;
66601;SDS011;53459;51.828;7.872;2022-07-29T16:43:16;8.47;;;2.93;;
66601;SDS011;53459;51.828;7.872;2022-07-29T16:45:42;9.20;;;3.17;;
66601;SDS011;53459;51.828;7.872;2022-07-29T16:48:08;7.82;;;2.85;;
66601;SDS011;53459;51.828;7.872;2022-07-29T16:50:33;7.73;;;2.70;;
66601;SDS011;53459;51.828;7.872;2022-07-29T16:52:59;7.75;;;2.80;;
66601;SDS011;53459;51.828;7.872;2022-07-29T16:55:25;7.10;;;2.40;;
66601;SDS011;53459;51.828;7.872;2022-07-29T16:57:51;6.63;;;2.38;;
66601;SDS011;53459;51.828;7.872;2022-07-29T17:00:17;7.82;;;2.72;;
66601;SDS011;53459;51.828;7.872;2022-07-29T17:02:43;8.87;;;3.03;;
66601;SDS011;53459;51.828;7.872;2022-07-29T17:05:09;9.67;;;2.53;;
66601;SDS011;53459;51.828;7.872;2022-07-29T17:07:36;9.35;;;2.60;;
66601;SDS011;53459;51.828;7.872;2022-07-29T17:10:03;5.90;;;2.33;;
66601;SDS011;53459;51.828;7.872;2022-07-29T17:13:48;6.85;;;2.40;;
66601;SDS011;53459;51.828;7.872;2022-07-29T17:16:13;8.02;;;2.20;;
66601;SDS011;53459;51.828;7.872;2022-07-29T17:18:40;6.45;;;2.30;;
66601;SDS011;53459;51.828;7.872;2022-07-29T17:21:06;7.80;;;2.30;;
66601;SDS011;53459;51.828;7.872;2022-07-29T17:23:31;7.05;;;2.45;;
66601;SDS011;53459;51.828;7.872;2022-07-29T17:25:57;9.70;;;2.50;;
66601;SDS011;53459;51.828;7.872;2022-07-29T17:28:23;6.83;;;2.60;;
66601;SDS011;53459;51.828;7.872;2022-07-29T17:30:48;11.10;;;3.00;;
66601;SDS011;53459;51.828;7.872;2022-07-29T17:33:14;7.43;;;2.57;;
66601;SDS011;53459;51.828;7.872;2022-07-29T17:35:39;5.70;;;2.30;;
66601;SDS011;53459;51.828;7.872;2022-07-29T17:38:24;7.65;;;2.70;;
66601;SDS011;53459;51.828;7.872;2022-07-29T17:40:49;7.60;;;2.60;;
66601;SDS011;53459;51.828;7.872;2022-07-29T17:43:15;6.40;;;2.50;;
66601;SDS011;53459;51.828;7.872;2022-07-29T17:45:41;9.00;;;2.70;;
66601;SDS011;53459;51.828;7.872;2022-07-29T17:49:58;6.80;;;2.42;;
66601;SDS011;53459;51.828;7.872;2022-07-29T17:52:24;10.75;;;3.25;;
66601;SDS011;53459;51.828;7.872;2022-07-29T17:54:50;5.97;;;2.45;;
66601;SDS011;53459;51.828;7.872;2022-07-29T17:57:15;9.47;;;2.63;;
66601;SDS011;53459;51.828;7.872;2022-07-29T17:59:41;9.13;;;2.75;;
66601;SDS011;53459;51.828;7.872;2022-07-29T18:02:07;7.27;;;2.60;;
66601;SDS011;53459;51.828;7.872;2022-07-29T18:04:32;7.20;;;2.45;;
66601;SDS011;53459;51.828;7.872;2022-07-29T18:06:58;7.70;;;2.40;;
66601;SDS011;53459;51.828;7.872;2022-07-29T18:09:23;9.70;;;2.63;;
66601;SDS011;53459;51.828;7.872;2022-07-29T18:11:49;8.00;;;2.67;;
66601;SDS011;53459;51.828;7.872;2022-07-29T18:14:15;9.38;;;2.90;;
66601;SDS011;53459;51.828;7.872;2022-07-29T18:16:41;7.27;;;2.87;;
66601;SDS011;53459;51.828;7.872;2022-07-29T18:19:06;7.55;;;2.60;;
66601;SDS011;53459;51.828;7.872;2022-07-29T18:22:15;7.53;;;2.60;;
66601;SDS011;53459;51.828;7.872;2022-07-29T18:24:41;7.13;;;2.60;;
66601;SDS011;53459;51.828;7.872;2022-07-29T18:27:06;7.57;;;2.83;;
66601;SDS011;53459;51.828;7.872;2022-07-29T18:29:32;9.60;;;2.70;;
66601;SDS011;53459;51.828;7.872;2022-07-29T18:31:58;9.63;;;2.70;;
66601;SDS011;53459;51.828;7.872;2022-07-29T18:34:24;9.40;;;2.75;;
66601;SDS011;53459;51.828;7.872;2022-07-29T18:36:49;7.57;;;2.60;;
66601;SDS011;53459;51.828;7.872;2022-07-29T18:40:31;6.53;;;2.70;;
66601;SDS011;53459;51.828;7.872;2022-07-29T18:42:57;8.10;;;2.60;;
66601;SDS011;53459;51.828;7.872;2022-07-29T18:45:22;8.37;;;2.50;;
66601;SDS011;53459;51.828;7.872;2022-07-29T18:47:48;6.40;;;2.80;;
66601;SDS011;53459;51.828;7.872;2022-07-29T18:50:13;7.10;;;2.77;;
66601;SDS011;53459;51.828;7.872;2022-07-29T18:52:40;9.63;;;2.53;;
66601;SDS011;53459;51.828;7.872;2022-07-29T18:55:06;7.17;;;2.20;;
66601;SDS011;53459;51.828;7.872;2022-07-29T18:57:32;9.13;;;2.55;;
66601;SDS011;53459;51.828;7.872;2022-07-29T18:59:58;9.17;;;2.77;;
66601;SDS011;53459;51.828;7.872;2022-07-29T19:02:24;6.95;;;2.70;;
66601;SDS011;53459;51.828;7.872;2022-07-29T19:04:50;7.10;;;2.50;;
66601;SDS011;53459;51.828;7.872;2022-07-29T19:07:16;7.57;;;3.00;;
66601;SDS011;53459;51.828;7.872;2022-07-29T19:09:45;8.40;;;2.70;;
66601;SDS011;53459;51.828;7.872;2022-07-29T19:12:11;9.75;;;2.85;;
66601;SDS011;53459;51.828;7.872;2022-07-29T19:14:37;10.55;;;2.67;;
66601;SDS011;53459;51.828;7.872;2022-07-29T19:17:03;7.07;;;2.70;;
66601;SDS011;53459;51.828;7.872;2022-07-29T19:19:28;6.23;;;2.60;;
66601;SDS011;53459;51.828;7.872;2022-07-29T19:21:54;8.50;;;3.20;;
66601;SDS011;53459;51.828;7.872;2022-07-29T19:24:20;7.17;;;3.27;;
66601;SDS011;53459;51.828;7.872;2022-07-29T19:26:45;6.63;;;2.70;;
66601;SDS011;53459;51.828;7.872;2022-07-29T19:29:11;7.73;;;2.80;;
66601;SDS011;53459;51.828;7.872;2022-07-29T19:31:38;7.82;;;2.90;;
66601;SDS011;53459;51.828;7.872;2022-07-29T19:34:04;7.50;;;2.50;;
66601;SDS011;53459;51.828;7.872;2022-07-29T19:36:30;7.27;;;2.73;;
66601;SDS011;53459;51.828;7.872;2022-07-29T19:38:56;6.88;;;2.92;;
66601;SDS011;53459;51.828;7.872;2022-07-29T19:42:52;8.23;;;2.60;;
66601;SDS011;53459;51.828;7.872;2022-07-29T19:45:19;6.30;;;2.63;;
66601;SDS011;53459;51.828;7.872;2022-07-29T19:50:05;6.45;;;2.78;;
66601;SDS011;53459;51.828;7.872;2022-07-29T19:54:14;7.93;;;3.10;;
66601;SDS011;53459;51.828;7.872;2022-07-29T19:56:42;6.57;;;2.90;;
66601;SDS011;53459;51.828;7.872;2022-07-29T19:59:08;7.75;;;2.95;;
66601;SDS011;53459;51.828;7.872;2022-07-29T20:01:34;8.20;;;2.90;;
66601;SDS011;53459;51.828;7.872;2022-07-29T20:04:00;6.82;;;2.90;;
66601;SDS011;53459;51.828;7.872;2022-07-29T20:06:25;6.50;;;2.80;;
66601;SDS011;53459;51.828;7.872;2022-07-29T20:08:51;8.75;;;2.80;;
66601;SDS011;53459;51.828;7.872;2022-07-29T20:11:17;8.23;;;3.05;;
66601;SDS011;53459;51.828;7.872;2022-07-29T20:13:42;7.97;;;2.90;;
66601;SDS011;53459;51.828;7.872;2022-07-29T20:16:08;8.43;;;3.20;;
66601;SDS011;53459;51.828;7.872;2022-07-29T20:18:34;7.23;;;3.10;;
66601;SDS011;53459;51.828;7.872;2022-07-29T20:20:59;8.83;;;2.90;;
66601;SDS011;53459;51.828;7.872;2022-07-29T20:23:25;6.20;;;2.90;;
66601;SDS011;53459;51.828;7.872;2022-07-29T20:25:51;7.72;;;2.92;;
66601;SDS011;53459;51.828;7.872;2022-07-29T20:28:17;6.65;;;2.80;;
66601;SDS011;53459;51.828;7.872;2022-07-29T20:30:43;8.23;;;3.27;;
66601;SDS011;53459;51.828;7.872;2022-07-29T20:33:08;8.85;;;3.13;;
66601;SDS011;53459;51.828;7.872;2022-07-29T20:35:34;7.80;;;3.03;;
66601;SDS011;53459;51.828;7.872;2022-07-29T20:37:59;7.30;;;3.08;;
66601;SDS011;53459;51.828;7.872;2022-07-29T20:40:26;7.78;;;3.25;;
66601;SDS011;53459;51.828;7.872;2022-07-29T20:42:53;7.38;;;3.22;;
66601;SDS011;53459;51.828;7.872;2022-07-29T20:45:19;7.93;;;3.78;;
66601;SDS011;53459;51.828;7.872;2022-07-29T20:47:45;9.90;;;3.70;;
66601;SDS011;53459;51.828;7.872;2022-07-29T20:50:11;9.73;;;3.47;;
66601;SDS011;53459;51.828;7.872;2022-07-29T20:59:26;8.98;;;4.10;;
66601;SDS011;53459;51.828;7.872;2022-07-29T21:01:52;9.05;;;3.85;;
66601;SDS011;53459;51.828;7.872;2022-07-29T21:04:19;8.95;;;3.97;;
66601;SDS011;53459;51.828;7.872;2022-07-29T21:06:45;10.37;;;3.70;;
66601;SDS011;53459;51.828;7.872;2022-07-29T21:09:11;9.20;;;4.20;;
66601;SDS011;53459;51.828;7.872;2022-07-29T21:11:36;8.70;;;3.50;;
66601;SDS011;53459;51.828;7.872;2022-07-29T21:14:02;8.60;;;3.90;;
66601;SDS011;53459;51.828;7.872;2022-07-29T21:18:01;9.70;;;3.78;;
66601;SDS011;53459;51.828;7.872;2022-07-29T21:20:29;8.27;;;3.80;;
66601;SDS011;53459;51.828;7.872;2022-07-29T21:22:55;9.13;;;3.95;;
66601;SDS011;53459;51.828;7.872;2022-07-29T21:25:22;9.65;;;4.25;;
66601;SDS011;53459;51.828;7.872;2022-07-29T21:29:13;8.88;;;4.50;;
66601;SDS011;53459;51.828;7.872;2022-07-29T21:31:39;8.32;;;4.50;;
66601;SDS011;53459;51.828;7.872;2022-07-29T21:34:06;10.27;;;4.18;;
66601;SDS011;53459;51.828;7.872;2022-07-29T21:36:32;9.88;;;4.70;;
66601;SDS011;53459;51.828;7.872;2022-07-29T21:38:58;8.23;;;4.27;;
66601;SDS011;53459;51.828;7.872;2022-07-29T21:41:24;9.32;;;3.90;;
66601;SDS011;53459;51.828;7.872;2022-07-29T21:43:50;8.60;;;4.10;;
66601;SDS011;53459;51.828;7.872;2022-07-29T21:46:16;11.27;;;4.68;;
66601;SDS011;53459;51.828;7.872;2022-07-29T21:48:42;10.82;;;4.03;;
66601;SDS011;53459;51.828;7.872;2022-07-29T21:51:07;9.70;;;4.33;;
66601;SDS011;53459;51.828;7.872;2022-07-29T21:53:33;11.10;;;4.18;;
66601;SDS011;53459;51.828;7.872;2022-07-29T21:55:59;8.93;;;4.30;;
66601;SDS011;53459;51.828;7.872;2022-07-29T21:58:24;9.67;;;4.10;;
66601;SDS011;53459;51.828;7.872;2022-07-29T22:00:50;9.73;;;4.65;;
66601;SDS011;53459;51.828;7.872;2022-07-29T22:03:16;9.45;;;4.57;;
66601;SDS011;53459;51.828;7.872;2022-07-29T22:05:43;7.90;;;4.30;;
66601;SDS011;53459;51.828;7.872;2022-07-29T22:08:09;8.87;;;4.30;;
66601;SDS011;53459;51.828;7.872;2022-07-29T22:10:35;9.53;;;3.97;;
66601;SDS011;53459;51.828;7.872;2022-07-29T22:13:00;7.15;;;4.10;;
66601;SDS011;53459;51.828;7.872;2022-07-29T22:15:27;8.90;;;4.70;;
66601;SDS011;53459;51.828;7.872;2022-07-29T22:17:53;8.98;;;4.82;;
66601;SDS011;53459;51.828;7.872;2022-07-29T22:20:19;10.10;;;4.70;;
66601;SDS011;53459;51.828;7.872;2022-07-29T22:22:45;9.10;;;4.80;;
66601;SDS011;53459;51.828;7.872;2022-07-29T22:25:12;9.17;;;4.43;;
66601;SDS011;53459;51.828;7.872;2022-07-29T22:27:38;10.15;;;5.07;;
66601;SDS011;53459;51.828;7.872;2022-07-29T22:30:04;9.25;;;4.30;;
66601;SDS011;53459;51.828;7.872;2022-07-29T22:32:31;9.00;;;4.60;;
66601;SDS011;53459;51.828;7.872;2022-07-29T22:34:56;8.30;;;4.50;;
66601;SDS011;53459;51.828;7.872;2022-07-29T22:37:22;9.05;;;4.90;;
66601;SDS011;53459;51.828;7.872;2022-07-29T22:39:47;8.73;;;4.30;;
66601;SDS011;53459;51.828;7.872;2022-07-29T22:42:13;9.35;;;4.50;;
66601;SDS011;53459;51.828;7.872;2022-07-29T22:44:38;11.70;;;5.13;;
66601;SDS011;53459;51.828;7.872;2022-07-29T22:47:04;9.70;;;5.90;;
66601;SDS011;53459;51.828;7.872;2022-07-29T22:49:30;10.40;;;5.50;;
66601;SDS011;53459;51.828;7.872;2022-07-29T22:51:56;10.45;;;5.15;;
66601;SDS011;53459;51.828;7.872;2022-07-29T22:54:21;8.83;;;5.03;;
66601;SDS011;53459;51.828;7.872;2022-07-29T22:56:47;9.70;;;5.33;;
66601;SDS011;53459;51.828;7.872;2022-07-29T22:59:12;8.55;;;4.93;;
66601;SDS011;53459;51.828;7.872;2022-07-29T23:01:38;9.90;;;5.30;;
66601;SDS011;53459;51.828;7.872;2022-07-29T23:04:04;9.33;;;5.33;;
66601;SDS011;53459;51.828;7.872;2022-07-29T23:08:03;10.48;;;5.22;;
66601;SDS011;53459;51.828;7.872;2022-07-29T23:10:29;10.10;;;5.45;;
66601;SDS011;53459;51.828;7.872;2022-07-29T23:12:55;11.32;;;5.35;;
66601;SDS011;53459;51.828;7.872;2022-07-29T23:15:21;10.47;;;5.30;;
66601;SDS011;53459;51.828;7.872;2022-07-29T23:17:47;9.52;;;4.65;;
66601;SDS011;53459;51.828;7.872;2022-07-29T23:20:12;9.77;;;5.07;;
66601;SDS011;53459;51.828;7.872;2022-07-29T23:22:38;9.68;;;5.40;;
66601;SDS011;53459;51.828;7.872;2022-07-29T23:25:04;8.88;;;5.13;;
66601;SDS011;53459;51.828;7.872;2022-07-29T23:28:57;10.52;;;6.15;;
66601;SDS011;53459;51.828;7.872;2022-07-29T23:31:23;10.73;;;5.43;;
66601;SDS011;53459;51.828;7.872;2022-07-29T23:33:49;11.07;;;5.67;;
66601;SDS011;53459;51.828;7.872;2022-07-29T23:36:14;12.25;;;6.03;;
66601;SDS011;53459;51.828;7.872;2022-07-29T23:38:40;12.50;;;6.27;;
66601;SDS011;53459;51.828;7.872;2022-07-29T23:41:29;9.80;;;5.38;;
66601;SDS011;53459;51.828;7.872;2022-07-29T23:43:55;12.13;;;6.40;;
66601;SDS011;53459;51.828;7.872;2022-07-29T23:47:04;10.77;;;6.32;;
66601;SDS011;53459;51.828;7.872;2022-07-29T23:49:30;9.35;;;5.80;;
66601;SDS011;53459;51.828;7.872;2022-07-29T23:51:56;12.13;;;6.07;;
66601;SDS011;53459;51.828;7.872;2022-07-29T23:54:21;11.50;;;6.28;;
66601;SDS011;53459;51.828;7.872;2022-07-29T23:56:52;10.77;;;5.95;;
66601;SDS011;53459;51.828;7.872;2022-07-29T23:59:22;10.40;;;6.40;;
